Nearby METAR Reports

 

KALB - Albany, New York, USA
Distance from station: E 47mi, 75km
Updated: Fri, 22-Mar-2019 4:51pm EDT
Light rain, Overcast
Light rain, Overcast
 Wind from W
Wind: W 22 mph , 35 km/h, Gust: 36 mph , 57 km/h
Temperature: 39°F , 4°C
Wind Chill: 29°F , -2°C
Dew Point: 32°F , 0°C
Humidity: 75%
Barometer: 29.30 inHg , 992.2 hPa
Summary: Light rain
Clouds: Overcast
Visibility: 10 miles , 16 km
Cloud details: Few Clouds 2200 ft
Mostly cloudy 5000 ft
Overcast 6500 ft
2019/03/22 20:51 KALB 222051Z 28019G31KT 10SM -RA FEW022 BKN050 OVC065 04/00 A2930 RMK AO2 PK WND 27034/2035 SLP923 P0000 60000 T00440000 55004
KSLK - Saranac Lake, New York, USA
Distance from station: N 110mi, 177km
Updated: Fri, 22-Mar-2019 4:51pm EDT
Snow, Fog, Overcast
Snow, Fog, Overcast
 Wind from NNW
Wind: NNW 7 mph , 11 km/h
Temperature: 32°F , 0°C
Wind Chill: 25°F , -4°C
Dew Point: 30°F , -1°C
Humidity: 93%
Barometer: 29.29 inHg , 991.9 hPa
Summary: Snow, Fog
Clouds: Overcast
Visibility: 1/2 mile , 0.8 km
Cloud details: Overcast 900 ft
2019/03/22 20:51 KSLK 222051Z AUTO 34006KT 1/2SM SN FG VV009 00/M01 A2929 RMK AO2 SLP932 P0002 60003 T00001006 55001
 
KSYR - Syracuse, New York, USA
Distance from station: W 73mi, 117km
Updated: Fri, 22-Mar-2019 4:54pm EDT
Light rain, Overcast
Light rain, Overcast
 Wind from W
Wind: W 17 mph , 28 km/h, Gust: 24 mph , 39 km/h
Temperature: 37°F , 3°C
Wind Chill: 27°F , -3°C
Dew Point: 36°F , 2°C
Humidity: 93%
Barometer: 29.49 inHg , 998.6 hPa
Summary: Light rain
Clouds: Overcast
Visibility: 10 miles , 16 km
Cloud details: Mostly cloudy 1600 ft
Overcast 2000 ft
2019/03/22 20:54 KSYR 222054Z 28015G21KT 10SM -RA BKN016 OVC020 03/02 A2949 RMK AO2 SLP985 P0000 60000 T00280017 55003
KBGM - Binghamton, New York, USA
Distance from station: SW 78mi, 126km
Updated: Fri, 22-Mar-2019 4:53pm EDT
Overcast
Overcast
 Wind from NNW
Wind: NNW 15 mph , 24 km/h, Gust: 25 mph , 41 km/h
Temperature: 36°F , 2°C
Wind Chill: 27°F , -3°C
Dew Point: 28°F , -2°C
Humidity: 75%
Barometer: 29.43 inHg , 996.6 hPa
Clouds: Overcast
Visibility: 10 miles , 16 km
Cloud details: Mostly cloudy 2300 ft
Mostly cloudy 2800 ft
Overcast 4200 ft
2019/03/22 20:53 KBGM 222053Z 33013G22KT 10SM BKN023 BKN028 OVC042 02/M02 A2943 RMK AO2 SLP977 60000 T00221022 55001
 
KRME - Rome, New York, USA
Distance from station: WNW 43mi, 69km
Updated: Fri, 22-Mar-2019 4:53pm EDT
Light rain, Overcast
Light rain, Overcast
 Wind from WNW
Wind: WNW 18 mph , 30 km/h
Temperature: 36°F , 2°C
Wind Chill: 26°F , -3°C
Dew Point: 34°F , 1°C
Humidity: 93%
Barometer: 29.43 inHg , 996.6 hPa
Summary: Light rain
Clouds: Overcast
Visibility: 10 miles , 16 km
Cloud details: Overcast 1100 ft
2019/03/22 20:53 KRME 222053Z 29016KT 10SM -RA OVC011 02/01 A2943 RMK AO2 RAE11B32UPB11E32 SLP968 P0001 60003 T00220006 55002
KJFK - New York, New York, USA
Distance from station: SSE 159mi, 256km
Updated: Fri, 22-Mar-2019 4:51pm EDT
Mostly cloudy
Mostly cloudy
 Wind from W
Wind: W 26 mph , 43 km/h, Gust: 39 mph , 63 km/h
Temperature: 50°F , 10°C
Wind Chill: 43°F , 6°C
Dew Point: 28°F , -2°C
Humidity: 43%
Barometer: 29.38 inHg , 994.9 hPa
Clouds: Mostly cloudy
Visibility: 10 miles , 16 km
Cloud details: Mostly cloudy 5500 ft
Mostly cloudy 7500 ft
2019/03/22 20:51 KJFK 222051Z 28023G34KT 10SM BKN055 BKN075 10/M02 A2938 RMK AO2 PK WND 29036/2031 SLP949 60000 T01001017 53003
 
KROC - Rochester, New York, USA
Distance from station: W 150mi, 242km
Updated: Fri, 22-Mar-2019 5:20pm EDT
Light snow, Overcast
Light snow, Overcast
 Wind from WNW
Wind: WNW 18 mph , 30 km/h, Gust: 30 mph , 48 km/h
Temperature: 34°F , 1°C
Wind Chill: 23°F , -5°C
Dew Point: 28°F , -2°C
Humidity: 81%
Barometer: 29.61 inHg , 1002.7 hPa
Summary: Light Snow
Clouds: Overcast
Visibility: 5 miles , 8 km
Cloud details: Few Clouds 800 ft
Mostly cloudy 1600 ft
Overcast 3400 ft
2019/03/22 21:20 KROC 222120Z 30016G26KT 5SM -SN FEW008 BKN016 OVC034 01/M02 A2961 RMK AO2 PK WND 33028/2101 SCT V BKN P0000 T00061022
KART - Watertown, New York, USA
Distance from station: NNW 103mi, 166km
Updated: Fri, 22-Mar-2019 4:56pm EDT
Light rain, Overcast
Light rain, Overcast
 Wind from NW
Wind: NW 14 mph , 22 km/h, Gust: 25 mph , 41 km/h
Temperature: 37°F , 3°C
Wind Chill: 28°F , -2°C
Dew Point: 34°F , 1°C
Humidity: 87%
Barometer: 29.47 inHg , 998 hPa
Summary: Light rain
Clouds: Overcast
Visibility: 8 miles , 13 km
Cloud details: Mostly cloudy 1800 ft
Overcast 2400 ft
2019/03/22 20:56 KART 222056Z AUTO 32012G22KT 8SM -RA BKN018 OVC024 03/01 A2947 RMK AO2 SLP982 P0001 60002 T00280011 55000
 
KELM - Elmira-Corning, New York, USA
Distance from station: SSW 121mi, 195km
Updated: Fri, 22-Mar-2019 5:15pm EDT
Light rain, Mostly cloudy
Light rain, Mostly cloudy
 Wind from WNW
Wind: WNW 10 mph , 17 km/h, Gust: 24 mph , 39 km/h
Temperature: 37°F , 3°C
Wind Chill: 30°F , -1°C
Dew Point: 32°F , 0°C
Humidity: 81%
Barometer: 29.52 inHg , 999.7 hPa
Summary: Light rain
Clouds: Mostly cloudy
Visibility: 10 miles , 16 km
Cloud details: Partly cloudy 2400 ft
Partly cloudy 5500 ft
Mostly cloudy 9500 ft
2019/03/22 21:15 KELM 222115Z 30009G21KT 10SM -RA SCT024 SCT055 BKN095 03/00 A2952 RMK AO2 P0000 T00330000
KJHW - Jamestown, New York, USA
Distance from station: SW 238mi, 383km
Updated: Fri, 22-Mar-2019 4:56pm EDT
Light snow, Overcast
Light snow, Overcast
 Wind from NW
Wind: NW 17 mph , 28 km/h, Gust: 29 mph , 46 km/h
Temperature: 30°F , -1°C
Wind Chill: 18°F , -8°C
Dew Point: 23°F , -5°C
Humidity: 75%
Barometer: 29.68 inHg , 1005.1 hPa
Summary: Light Snow
Clouds: Overcast
Visibility: 9 miles , 14 km
Cloud details: Overcast 3600 ft
2019/03/22 20:56 KJHW 222056Z AUTO 32015G25KT 9SM -SN OVC036 M01/M05 A2968 RMK AO2 PK WND 32031/2006 SLP072 P0000 60000 T10061050 53023 FZRANO
 
KMSS - Massena, New York, USA
Distance from station: N 141mi, 232km
Updated: Fri, 22-Mar-2019 4:53pm EDT
Light rain, Mist, Overcast
Light rain, Mist, Overcast
 Wind from WNW
Wind: WNW 9 mph , 15 km/h, Gust: 18 mph , 30 km/h
Temperature: 37°F , 3°C
Wind Chill: 30°F , -1°C
Dew Point: 36°F , 2°C
Humidity: 93%
Barometer: 29.41 inHg , 995.9 hPa
Summary: Light rain, Mist
Clouds: Overcast
Visibility: 6 miles , 10 km
Cloud details: Overcast 800 ft
2019/03/22 20:53 KMSS 222053Z AUTO 30008G16KT 6SM -RA BR OVC008 03/02 A2941 RMK AO2 CIG 006V010 SLP963 P0002 60006 T00280022 56009
KBUF - Buffalo, New York, USA
Distance from station: W 204mi, 328km
Updated: Fri, 22-Mar-2019 4:54pm EDT
Mostly cloudy
Mostly cloudy
 Wind from NW
Wind: NW 28 mph , 44 km/h, Gust: 33 mph , 54 km/h
Temperature: 34°F , 1°C
Wind Chill: 21°F , -6°C
Dew Point: 25°F , -4°C
Humidity: 70%
Barometer: 29.68 inHg , 1005.1 hPa
Clouds: Mostly cloudy
Visibility: 10 miles , 16 km
Cloud details: Partly cloudy 3000 ft
Mostly cloudy 4800 ft
Mostly cloudy 10000 ft
2019/03/22 20:54 KBUF 222054Z 32024G29KT 10SM SCT030 BKN048 BKN100 01/M04 A2968 RMK AO2 PK WND 31032/2018 SNE47 SLP058 P0000 60000 T00111044 53022